Time;durP1;ratioP1;P1;durP2;ratioP2;P2;SDS_P1;SDS_P2;PMS_P1;PMS_P2;Temp;Humidity;BMP_temperature;BMP_pressure;BME280_temperature;BME280_humidity;BME280_pressure;Samples;Min_cycle;Max_cycle;Signal;HPM_P1;HPM_P2
2023/01/27 00:00:42;;;;;;;0.60;0.60;;;;;;;-1.66;91.74;102001.19;5104671;28;20024;-75
2023/01/27 00:03:12;;;;;;;0.50;0.50;;;;;;;-1.68;91.79;102000.22;5086338;28;20099;-76
2023/01/27 00:05:37;;;;;;;0.60;0.60;;;;;;;-1.70;91.87;102005.97;5104706;28;20020;-76
2023/01/27 00:08:03;;;;;;;0.60;0.60;;;;;;;-1.72;91.98;102004.97;5104519;28;20023;-76
2023/01/27 00:10:28;;;;;;;0.60;0.60;;;;;;;-1.79;92.03;101999.47;5086282;28;20043;-76
2023/01/27 00:15:38;;;;;;;0.65;0.65;;;;;;;-1.78;91.89;102015.63;5104718;28;20039;-77
2023/01/27 00:18:04;;;;;;;0.60;0.60;;;;;;;-1.82;91.93;102016.22;5104642;28;20028;-75
2023/01/27 00:26:06;;;;;;;0.60;0.60;;;;;;;-1.89;91.75;102015.78;5104711;28;20172;-76
2023/01/27 00:28:33;;;;;;;0.60;0.60;;;;;;;-1.90;92.02;102021.63;5104246;28;20024;-76
2023/01/27 00:30:59;;;;;;;0.60;0.60;;;;;;;-1.92;92.02;102009.59;5104262;28;20468;-76
2023/01/27 00:33:26;;;;;;;0.60;0.60;;;;;;;-1.96;92.20;102008.50;5104257;28;20067;-74
2023/01/27 00:36:05;;;;;;;0.60;0.60;;;;;;;-1.98;92.16;102010.03;5085936;28;20084;-74
2023/01/27 00:38:33;;;;;;;0.60;0.60;;;;;;;-1.96;92.30;102002.50;5104487;28;20020;-76
2023/01/27 00:41:14;;;;;;;0.60;0.60;;;;;;;-1.95;92.20;101996.66;5104187;28;20055;-76
2023/01/27 00:43:40;;;;;;;0.65;0.65;;;;;;;-1.92;92.34;102004.50;5103433;28;20047;-75
2023/01/27 00:46:05;;;;;;;0.60;0.60;;;;;;;-1.91;92.37;101996.06;5103480;28;20043;-76
2023/01/27 00:48:31;;;;;;;0.50;0.50;;;;;;;-1.93;92.38;101992.56;5103234;28;20031;-75
2023/01/27 00:50:57;;;;;;;0.60;0.60;;;;;;;-1.91;92.40;101996.97;5084784;28;20028;-75
2023/01/27 00:53:22;;;;;;;0.60;0.60;;;;;;;-1.87;92.46;102005.72;5085306;28;20027;-75
2023/01/27 00:55:48;;;;;;;0.68;0.68;;;;;;;-1.93;92.26;101983.25;5103325;28;20032;-74
2023/01/27 00:58:14;;;;;;;0.60;0.60;;;;;;;-1.92;92.41;101995.22;5106638;28;20028;-75
2023/01/27 01:00:40;;;;;;;0.60;0.60;;;;;;;-1.91;92.36;102009.69;5106570;28;20032;-74
2023/01/27 01:03:05;;;;;;;0.50;0.50;;;;;;;-1.89;92.61;102004.72;5106632;28;20030;-76
2023/01/27 01:05:30;;;;;;;0.50;0.50;;;;;;;-1.87;92.42;101998.06;5106641;28;20028;-75
2023/01/27 01:07:56;;;;;;;0.60;0.60;;;;;;;-1.85;92.64;102003.28;5088259;28;20050;-75
2023/01/27 01:10:22;;;;;;;0.60;0.60;;;;;;;-1.86;92.50;102007.47;5106551;28;20080;-75
2023/01/27 01:12:47;;;;;;;0.60;0.60;;;;;;;-1.90;92.63;102006.38;5106453;28;20069;-76
2023/01/27 01:15:13;;;;;;;0.60;0.60;;;;;;;-1.88;92.49;102014.09;5106573;28;20027;-75
2023/01/27 01:17:38;;;;;;;0.63;0.63;;;;;;;-1.90;92.53;102002.97;5106478;28;20042;-77
2023/01/27 01:20:04;;;;;;;0.60;0.60;;;;;;;-1.94;92.36;102006.94;5105083;28;20320;-77
2023/01/27 01:22:30;;;;;;;0.60;0.60;;;;;;;-1.89;92.45;102010.69;5088091;28;20053;-75
2023/01/27 01:24:55;;;;;;;0.60;0.60;;;;;;;-1.89;92.51;102012.34;5106558;28;20111;-75
2023/01/27 01:27:21;;;;;;;0.60;0.60;;;;;;;-1.94;92.71;102017.13;5106375;28;20103;-75
2023/01/27 01:29:46;;;;;;;0.63;0.63;;;;;;;-1.88;92.62;102016.66;5106507;28;20016;-75
2023/01/27 01:32:12;;;;;;;0.60;0.60;;;;;;;-1.89;92.56;102020.00;5106183;28;20024;-75
2023/01/27 01:34:37;;;;;;;0.68;0.68;;;;;;;-1.93;92.49;102018.88;5106311;28;20093;-75
2023/01/27 01:37:03;;;;;;;0.60;0.60;;;;;;;-1.94;92.42;102024.75;5106157;28;20179;-75
2023/01/27 01:39:29;;;;;;;0.60;0.60;;;;;;;-2.03;92.05;102014.81;5106100;28;20032;-75
2023/01/27 01:41:55;;;;;;;0.60;0.60;;;;;;;-2.03;92.26;102014.81;5106104;28;20036;-76
2023/01/27 01:44:23;;;;;;;0.60;0.60;;;;;;;-2.06;92.43;102016.28;5063760;28;1197208;-75
2023/01/27 01:46:48;;;;;;;0.50;0.50;;;;;;;-2.12;92.41;102006.53;5107213;28;20092;-75
2023/01/27 01:49:16;;;;;;;0.65;0.65;;;;;;;-2.08;92.47;102012.75;5105730;28;20027;-75
2023/01/27 01:51:51;;;;;;;0.60;0.60;;;;;;;-2.11;92.32;102010.88;5107131;28;20031;-75
2023/01/27 01:54:22;;;;;;;0.60;0.60;;;;;;;-2.14;92.34;102019.16;5088900;28;20487;-76
2023/01/27 01:57:09;;;;;;;0.60;0.60;;;;;;;-2.20;92.26;102012.75;5088927;28;20024;-77
2023/01/27 01:59:43;;;;;;;0.50;0.50;;;;;;;-2.22;92.33;102025.38;5105698;28;20052;-74
2023/01/27 02:02:12;;;;;;;0.60;0.60;;;;;;;-2.24;92.50;102022.72;5088561;28;20028;-76
2023/01/27 02:04:53;;;;;;;0.60;0.60;;;;;;;-2.27;92.44;102014.00;5088650;28;20028;-76
2023/01/27 02:07:45;;;;;;;0.70;0.70;;;;;;;-2.27;92.38;102019.97;5088149;28;20017;-75
2023/01/27 02:10:11;;;;;;;0.70;0.70;;;;;;;-2.35;92.31;102008.38;5107242;28;20027;-76
2023/01/27 02:12:37;;;;;;;0.57;0.57;;;;;;;-2.33;92.52;102011.91;5105420;28;20170;-76
2023/01/27 02:15:04;;;;;;;0.60;0.60;;;;;;;-2.34;92.52;102020.31;5106804;28;20031;-76
2023/01/27 02:17:30;;;;;;;0.50;0.50;;;;;;;-2.35;92.44;102021.09;5106557;28;20016;-76
2023/01/27 02:20:16;;;;;;;0.63;0.63;;;;;;;-2.39;92.55;102017.44;5088335;28;20111;-77
2023/01/27 02:22:57;;;;;;;3.53;3.33;;;;;;;-2.37;92.64;102026.09;5106272;28;20024;-76
2023/01/27 02:25:30;;;;;;;0.50;0.50;;;;;;;-2.43;92.71;102035.78;5088401;28;20036;-76
2023/01/27 02:27:56;;;;;;;0.60;0.60;;;;;;;-2.41;92.75;102043.56;5106664;28;20023;-76
2023/01/27 02:30:21;;;;;;;0.50;0.50;;;;;;;-2.42;92.79;102041.78;5105064;28;20201;-79
2023/01/27 02:32:47;;;;;;;0.70;0.70;;;;;;;-2.47;92.64;102028.72;5106359;28;20016;-77
2023/01/27 02:35:20;;;;;;;0.60;0.60;;;;;;;-2.46;92.93;102038.13;5106380;28;20028;-77
2023/01/27 02:37:47;;;;;;;0.50;0.50;;;;;;;-2.49;92.87;102036.25;5106237;28;20024;-76
2023/01/27 02:40:13;;;;;;;0.63;0.63;;;;;;;-2.51;92.86;102045.41;5109241;28;20106;-77
2023/01/27 02:42:39;;;;;;;0.60;0.60;;;;;;;-2.62;92.65;102029.41;5109378;28;20491;-78
2023/01/27 02:45:05;;;;;;;0.60;0.60;;;;;;;-2.53;93.10;102048.63;5106874;28;20035;-76
2023/01/27 02:47:30;;;;;;;0.60;0.60;;;;;;;-2.54;92.83;102045.19;5104821;28;20494;-77
2023/01/27 02:49:55;;;;;;;0.70;0.70;;;;;;;-2.56;92.86;102049.31;5106320;28;20016;-77
2023/01/27 02:52:21;;;;;;;0.60;0.60;;;;;;;-2.62;92.96;102059.06;5087711;28;20035;-76
2023/01/27 02:54:46;;;;;;;0.60;0.60;;;;;;;-2.57;92.96;102072.09;5106160;28;20076;-76
2023/01/27 02:57:12;;;;;;;1.02;1.02;;;;;;;-2.60;92.86;102059.16;5105857;28;20035;-77
2023/01/27 02:59:37;;;;;;;0.70;0.70;;;;;;;-2.65;92.97;102054.59;5106065;28;20020;-77
2023/01/27 03:02:03;;;;;;;0.60;0.60;;;;;;;-2.62;93.03;102059.91;5087625;28;20030;-77
2023/01/27 03:04:29;;;;;;;0.60;0.60;;;;;;;-2.58;92.97;102063.56;5105860;28;20075;-76
2023/01/27 03:06:54;;;;;;;1.15;1.15;;;;;;;-2.65;93.02;102056.28;5105806;28;20219;-76
2023/01/27 03:09:19;;;;;;;0.60;0.60;;;;;;;-2.60;92.97;102056.63;5087636;28;20052;-77
2023/01/27 03:19:57;;;;;;;0.57;0.57;;;;;;;-2.65;92.83;102043.56;5104936;28;20031;-76
2023/01/27 03:22:23;;;;;;;0.65;0.65;;;;;;;-2.67;92.98;102042.56;5105336;28;20020;-77
2023/01/27 03:24:48;;;;;;;0.50;0.50;;;;;;;-2.65;92.78;102048.66;5105351;28;20028;-77
2023/01/27 03:27:13;;;;;;;0.60;0.60;;;;;;;-2.63;92.78;102047.09;5105544;28;20472;-77
2023/01/27 03:29:54;;;;;;;0.50;0.50;;;;;;;-2.62;92.71;102048.88;5105478;28;20020;-77
2023/01/27 03:32:21;;;;;;;0.60;0.60;;;;;;;-2.64;92.74;102051.31;5087078;28;20031;-76
2023/01/27 03:34:46;;;;;;;0.60;0.60;;;;;;;-2.62;92.74;102036.16;5105365;28;20545;-77
2023/01/27 03:48:08;;;;;;;0.60;0.60;;;;;;;-2.71;92.53;102040.56;5105212;28;20027;-79
2023/01/27 03:50:36;;;;;;;0.60;0.60;;;;;;;-2.67;92.39;102050.19;5105050;28;20012;-77
2023/01/27 03:53:04;;;;;;;0.60;0.60;;;;;;;-2.69;92.25;102045.00;5104893;28;20020;-77
2023/01/27 03:55:31;;;;;;;0.50;0.50;;;;;;;-2.73;92.37;102040.44;5104968;28;20506;-77
2023/01/27 03:58:04;;;;;;;0.60;0.60;;;;;;;-2.75;92.34;102040.34;5086547;28;20035;-78
2023/01/27 04:00:31;;;;;;;0.70;0.70;;;;;;;-2.69;92.16;102046.66;5105146;28;20024;-79
2023/01/27 04:08:24;;;;;;;0.60;0.60;;;;;;;-2.90;92.23;102021.44;5104886;28;20501;-79
2023/01/27 04:11:53;;;;;;;0.60;0.60;;;;;;;-2.76;92.21;102040.22;5086655;28;20020;-77
2023/01/27 04:13:35;;;;;;;0.60;0.60;;;;;;;-2.76;92.16;102041.13;5104334;28;20031;-78
2023/01/27 04:16:00;;;;;;;0.60;0.60;;;;;;;-2.80;91.95;102028.06;5104633;28;20481;-76
2023/01/27 04:18:26;;;;;;;0.50;0.50;;;;;;;-2.81;92.04;102028.88;5104483;28;20054;-76
2023/01/27 04:20:51;;;;;;;0.60;0.60;;;;;;;-2.81;91.94;102033.94;5085987;28;20016;-76
2023/01/27 04:23:17;;;;;;;0.70;0.70;;;;;;;-2.78;91.93;102034.16;5104518;28;20024;-77
2023/01/27 04:25:42;;;;;;;0.60;0.60;;;;;;;-2.78;91.78;102039.25;5104419;28;20020;-77
2023/01/27 04:28:07;;;;;;;0.70;0.70;;;;;;;-2.85;91.90;102027.75;5104499;28;20441;-77
2023/01/27 04:30:33;;;;;;;0.60;0.60;;;;;;;-2.85;91.62;102030.28;5104222;28;20086;-77
2023/01/27 04:33:01;;;;;;;0.60;0.60;;;;;;;-2.81;91.56;102041.56;5086035;28;20024;-78
2023/01/27 04:35:26;;;;;;;0.70;0.70;;;;;;;-2.90;91.54;102037.56;5086181;28;20055;-78
2023/01/27 04:37:52;;;;;;;0.60;0.60;;;;;;;-2.89;91.83;102044.41;5104317;28;20028;-78
2023/01/27 04:40:18;;;;;;;0.60;0.60;;;;;;;-2.88;91.50;102043.66;5086128;28;20032;-77
2023/01/27 04:42:43;;;;;;;0.70;0.70;;;;;;;-2.84;91.43;102052.38;5087499;28;20076;-78
2023/01/27 04:45:09;;;;;;;0.60;0.60;;;;;;;-2.82;91.56;102066.09;5106411;28;20054;-78
2023/01/27 04:47:34;;;;;;;0.60;0.60;;;;;;;-2.84;91.59;102062.56;5105622;28;20028;-78
2023/01/27 04:50:00;;;;;;;0.60;0.60;;;;;;;-2.88;91.60;102048.75;5086685;28;20036;-76
2023/01/27 04:52:25;;;;;;;0.60;0.60;;;;;;;-2.84;91.53;102046.44;5105072;28;20114;-78
2023/01/27 04:54:50;;;;;;;0.70;0.70;;;;;;;-2.82;91.58;102055.03;5091507;28;20024;-77
2023/01/27 04:57:16;;;;;;;0.60;0.60;;;;;;;-2.82;91.57;102053.38;5091517;28;20024;-77
2023/01/27 04:59:41;;;;;;;0.60;0.60;;;;;;;-2.78;91.61;102059.59;5109287;28;20020;-77
2023/01/27 05:02:06;;;;;;;0.60;0.60;;;;;;;-2.80;91.44;102054.41;5090898;28;20027;-77
2023/01/27 05:04:32;;;;;;;0.60;0.60;;;;;;;-2.77;91.48;102058.81;5090656;28;20056;-77
2023/01/27 05:06:57;;;;;;;0.60;0.60;;;;;;;-2.77;91.50;102049.53;5104609;28;20020;-76
2023/01/27 05:09:23;;;;;;;0.60;0.60;;;;;;;-2.74;91.64;102049.75;5104285;28;20039;-76
2023/01/27 05:11:48;;;;;;;0.60;0.60;;;;;;;-2.70;91.56;102052.53;5104002;28;20028;-77
2023/01/27 05:14:14;;;;;;;0.60;0.60;;;;;;;-2.73;91.63;102048.06;5103988;28;20035;-81
2023/01/27 05:16:39;;;;;;;0.60;0.60;;;;;;;-2.65;91.61;102052.06;5086071;28;20031;-74
2023/01/27 05:19:06;;;;;;;0.60;0.60;;;;;;;-2.64;91.73;102047.88;5103819;28;20034;-76
2023/01/27 05:21:31;;;;;;;0.60;0.60;;;;;;;-2.63;91.88;102047.09;5103942;28;20020;-79
2023/01/27 05:23:56;;;;;;;0.60;0.60;;;;;;;-2.60;91.91;102044.75;5104282;28;20035;-79
2023/01/27 05:26:25;;;;;;;0.60;0.60;;;;;;;-2.55;91.96;102038.34;5085879;28;20058;-80
2023/01/27 05:28:51;;;;;;;0.60;0.60;;;;;;;-2.57;91.97;102029.72;5104062;28;20050;-81
2023/01/27 05:31:22;;;;;;;0.60;0.60;;;;;;;-2.48;91.96;102042.22;5103933;28;20024;-81
2023/01/27 05:33:50;;;;;;;0.60;0.60;;;;;;;-2.47;91.85;102053.28;5104057;28;20047;-80
2023/01/27 05:36:18;;;;;;;0.52;0.52;;;;;;;-2.49;91.91;102051.50;5086065;28;20085;-80
2023/01/27 05:38:43;;;;;;;0.60;0.60;;;;;;;-2.57;91.86;102037.34;5106166;28;20036;-78
2023/01/27 05:41:11;;;;;;;0.60;0.60;;;;;;;-2.52;91.80;102053.84;5110338;28;20046;-72
2023/01/27 05:43:39;;;;;;;0.50;0.50;;;;;;;-2.57;92.00;102044.97;5092057;28;20063;-69
2023/01/27 05:46:04;;;;;;;0.60;0.60;;;;;;;-2.55;91.86;102048.53;5089950;28;20027;-79
2023/01/27 05:48:30;;;;;;;0.60;0.60;;;;;;;-2.56;91.97;102049.31;5089059;28;20024;-78
2023/01/27 05:50:57;;;;;;;0.70;0.70;;;;;;;-2.59;91.98;102038.94;5106953;28;20020;-80
2023/01/27 05:53:23;;;;;;;0.60;0.60;;;;;;;-2.52;92.03;102050.41;5105270;28;20088;-80
2023/01/27 05:55:49;;;;;;;0.60;0.60;;;;;;;-2.49;92.08;102061.69;5106178;28;20020;-82
2023/01/27 05:58:15;;;;;;;0.60;0.60;;;;;;;-2.51;91.92;102065.78;5107593;28;20081;-81
2023/01/27 06:00:41;;;;;;;0.60;0.60;;;;;;;-2.49;92.02;102060.78;5107279;28;20024;-81
2023/01/27 06:03:06;;;;;;;0.60;0.60;;;;;;;-2.50;91.93;102062.47;5107186;28;20024;-81
2023/01/27 06:05:31;;;;;;;0.60;0.60;;;;;;;-2.58;91.84;102053.41;5107374;28;20023;-81
2023/01/27 06:07:57;;;;;;;0.60;0.60;;;;;;;-2.52;91.92;102065.66;5106922;28;20020;-80
2023/01/27 06:10:22;;;;;;;0.60;0.60;;;;;;;-2.59;91.93;102053.28;5106101;28;20045;-81
2023/01/27 06:12:48;;;;;;;0.60;0.60;;;;;;;-2.54;91.79;102067.22;5107248;28;20032;-81
2023/01/27 06:15:13;;;;;;;0.63;0.63;;;;;;;-2.61;91.78;102065.91;5107113;28;20031;-81
2023/01/27 06:17:38;;;;;;;0.60;0.60;;;;;;;-2.57;91.83;102077.19;5107063;28;20028;-81
2023/01/27 06:20:04;;;;;;;0.60;0.60;;;;;;;-2.63;91.81;102081.03;5106783;28;20111;-81
2023/01/27 06:22:30;;;;;;;0.60;0.60;;;;;;;-2.64;91.88;102086.00;5088559;28;20043;-81
2023/01/27 06:24:55;;;;;;;0.55;0.55;;;;;;;-2.65;91.88;102082.56;5106874;28;20027;-81
2023/01/27 06:27:21;;;;;;;0.60;0.60;;;;;;;-2.63;91.78;102082.69;5088982;28;20027;-82
2023/01/27 06:29:46;;;;;;;0.50;0.50;;;;;;;-2.58;91.69;102083.03;5107367;28;20053;-81
2023/01/27 06:32:11;;;;;;;0.70;0.70;;;;;;;-2.57;91.73;102082.28;5088346;28;20024;-81
2023/01/27 06:34:37;;;;;;;0.55;0.55;;;;;;;-2.58;91.62;102090.66;5107402;28;20439;-80
2023/01/27 06:37:02;;;;;;;0.70;0.70;;;;;;;-2.59;91.65;102099.06;5087954;28;20020;-77
2023/01/27 06:39:27;;;;;;;0.60;0.60;;;;;;;-2.59;91.62;102096.53;5106049;28;20027;-77
2023/01/27 06:41:53;;;;;;;0.60;0.60;;;;;;;-2.62;91.48;102100.59;5105798;28;20027;-77
2023/01/27 06:44:18;;;;;;;0.60;0.60;;;;;;;-2.66;91.46;102087.56;5105970;28;20048;-77
2023/01/27 06:46:44;;;;;;;0.60;0.60;;;;;;;-2.68;91.56;102084.00;5106359;28;20048;-78
2023/01/27 06:49:09;;;;;;;0.63;0.63;;;;;;;-2.67;91.65;102078.16;5088259;28;20627;-77
2023/01/27 06:51:34;;;;;;;0.60;0.60;;;;;;;-2.76;91.44;102075.81;5106359;28;20050;-78
2023/01/27 06:54:00;;;;;;;0.60;0.60;;;;;;;-2.75;91.44;102082.69;5105459;28;20107;-78
2023/01/27 06:56:25;;;;;;;0.68;0.68;;;;;;;-2.67;91.58;102093.41;5106335;28;20043;-79
2023/01/27 06:58:51;;;;;;;0.70;0.70;;;;;;;-2.72;91.47;102085.47;5106726;28;20031;-78
2023/01/27 07:01:16;;;;;;;0.60;0.60;;;;;;;-2.68;91.55;102100.16;5106454;28;20023;-79
2023/01/27 07:03:42;;;;;;;0.60;0.60;;;;;;;-2.68;91.69;102101.81;5106583;28;20035;-78
2023/01/27 07:06:09;;;;;;;0.63;0.63;;;;;;;-2.74;91.70;102089.53;5106279;28;20079;-78
2023/01/27 07:08:35;;;;;;;0.60;0.60;;;;;;;-2.73;91.60;102086.22;5087899;28;20091;-79
2023/01/27 07:11:02;;;;;;;0.63;0.63;;;;;;;-2.68;91.55;102089.09;5087849;28;20016;-76
2023/01/27 07:13:27;;;;;;;0.60;0.60;;;;;;;-2.68;91.60;102076.38;5088159;28;20027;-79
2023/01/27 07:15:55;;;;;;;0.60;0.60;;;;;;;-2.62;91.74;102081.94;5105957;28;20023;-78
2023/01/27 07:18:20;;;;;;;0.70;0.70;;;;;;;-2.55;91.70;102080.69;5104833;28;20030;-79
2023/01/27 07:20:46;;;;;;;0.65;0.65;;;;;;;-2.47;91.70;102086.34;5105998;28;20380;-78
2023/01/27 07:23:12;;;;;;;0.60;0.60;;;;;;;-2.41;91.85;102087.66;5087842;28;20032;-79
2023/01/27 07:25:38;;;;;;;0.50;0.50;;;;;;;-2.35;91.91;102074.53;5104631;28;20024;-79
2023/01/27 07:28:04;;;;;;;0.60;0.60;;;;;;;-2.30;91.87;102078.25;5106026;28;20020;-79
2023/01/27 07:30:30;;;;;;;0.68;0.68;;;;;;;-2.26;92.00;102087.91;5105760;28;20022;-80
2023/01/27 07:33:06;;;;;;;0.63;0.63;;;;;;;-2.30;92.04;102062.13;5087708;28;20029;-80
2023/01/27 07:35:32;;;;;;;0.52;0.52;;;;;;;-2.20;91.95;102076.38;5105659;28;20023;-79
2023/01/27 07:37:58;;;;;;;0.60;0.60;;;;;;;-2.25;91.63;102068.41;5105390;28;20050;-79
2023/01/27 07:40:24;;;;;;;0.60;0.60;;;;;;;-2.17;91.87;102090.22;5087629;28;20059;-79
2023/01/27 07:42:49;;;;;;;0.55;0.55;;;;;;;-2.14;91.67;102084.47;5105204;28;20054;-78
2023/01/27 07:45:15;;;;;;;0.70;0.70;;;;;;;-2.15;91.94;102075.03;5105590;28;20024;-78
2023/01/27 07:47:40;;;;;;;0.60;0.60;;;;;;;-2.07;91.92;102084.13;5087163;28;20020;-79
2023/01/27 07:50:07;;;;;;;0.60;0.60;;;;;;;-2.08;91.75;102079.81;5105380;28;20024;-79
2023/01/27 07:52:32;;;;;;;0.70;0.70;;;;;;;-2.06;92.00;102083.31;5105339;28;20046;-80
2023/01/27 07:54:57;;;;;;;0.70;0.70;;;;;;;-1.94;92.07;102100.25;5105425;28;20024;-79
2023/01/27 07:57:23;;;;;;;0.60;0.60;;;;;;;-1.93;92.01;102091.84;5105267;28;20028;-81
2023/01/27 07:59:51;;;;;;;0.60;0.60;;;;;;;-1.87;92.05;102092.28;5105333;28;20460;-79
2023/01/27 08:02:17;;;;;;;0.60;0.60;;;;;;;-1.85;92.13;102090.69;5086900;28;20030;-79
2023/01/27 08:04:42;;;;;;;0.50;0.50;;;;;;;-1.80;92.12;102101.19;5105198;28;20024;-80
2023/01/27 08:07:08;;;;;;;0.50;0.50;;;;;;;-1.79;91.97;102097.91;5104668;28;20020;-78
2023/01/27 08:09:33;;;;;;;0.60;0.60;;;;;;;-1.80;91.70;102091.03;5105524;28;20020;-80
2023/01/27 08:11:58;;;;;;;0.60;0.60;;;;;;;-1.77;91.96;102096.31;5086796;28;20035;-78
2023/01/27 08:14:24;;;;;;;0.80;0.80;;;;;;;-1.73;92.14;102099.97;5086858;28;20078;-79
2023/01/27 08:16:49;;;;;;;0.57;0.57;;;;;;;-1.64;91.98;102101.50;5105327;28;20048;-79
2023/01/27 08:19:15;;;;;;;0.50;0.50;;;;;;;-1.58;91.87;102118.84;5104998;28;20037;-79
2023/01/27 08:21:40;;;;;;;0.60;0.60;;;;;;;-1.62;91.86;102099.06;5104808;28;20077;-78
2023/01/27 08:24:06;;;;;;;0.60;0.60;;;;;;;-1.53;92.05;102099.69;5086762;28;20070;-78
2023/01/27 08:26:31;;;;;;;0.50;0.50;;;;;;;-1.54;92.12;102095.38;5105406;28;20063;-79
2023/01/27 08:28:56;;;;;;;0.60;0.60;;;;;;;-1.52;91.93;102086.16;5087098;28;20031;-79
2023/01/27 08:31:22;;;;;;;0.60;0.60;;;;;;;-1.42;91.94;102104.66;5105241;28;20027;-78
2023/01/27 08:33:52;;;;;;;0.50;0.50;;;;;;;-1.42;91.85;102089.38;5107986;28;20334;-80
2023/01/27 08:36:20;;;;;;;0.50;0.50;;;;;;;-1.32;91.99;102098.50;5111439;28;20031;-79
2023/01/27 08:38:48;;;;;;;0.50;0.50;;;;;;;-1.30;91.83;102087.66;5113191;28;20008;-79
2023/01/27 08:41:16;;;;;;;0.52;0.52;;;;;;;-1.23;91.58;102108.44;5106440;28;20028;-77
2023/01/27 08:43:42;;;;;;;0.70;0.70;;;;;;;-1.25;91.65;102099.00;5105065;28;20104;-80
2023/01/27 08:46:08;;;;;;;0.50;0.50;;;;;;;-1.19;91.84;102095.13;5104869;28;20032;-79
2023/01/27 08:48:35;;;;;;;0.60;0.60;;;;;;;-1.10;91.91;102097.41;5104649;28;20030;-79
2023/01/27 08:51:01;;;;;;;0.50;0.50;;;;;;;-1.06;91.95;102089.19;5104761;28;20024;-78
2023/01/27 08:53:27;;;;;;;0.60;0.60;;;;;;;-0.94;91.90;102104.44;5104581;28;20023;-79
2023/01/27 08:55:56;;;;;;;0.50;0.50;;;;;;;-0.88;91.81;102087.84;5086581;28;20023;-80
2023/01/27 08:58:22;;;;;;;0.60;0.60;;;;;;;-0.72;91.73;102090.53;5104623;28;20039;-80
2023/01/27 09:00:47;;;;;;;0.43;0.43;;;;;;;-0.54;91.84;102090.81;5104767;28;20032;-79
2023/01/27 09:03:13;;;;;;;0.50;0.50;;;;;;;-0.44;91.62;102083.00;5086662;28;20058;-80
2023/01/27 09:05:39;;;;;;;0.50;0.50;;;;;;;-0.23;90.96;102085.13;5086564;28;20020;-81
2023/01/27 09:08:06;;;;;;;0.50;0.50;;;;;;;-0.17;90.51;102072.75;5105011;28;20019;-82
2023/01/27 09:10:36;;;;;;;0.60;0.60;;;;;;;-0.08;89.90;102080.09;5103481;28;20020;-81
2023/01/27 09:13:01;;;;;;;0.50;0.50;;;;;;;0.07;90.00;102071.63;5085991;28;20110;-81
2023/01/27 09:15:28;;;;;;;0.50;0.50;;;;;;;0.41;89.87;102080.47;5104614;28;20032;-81
2023/01/27 09:17:53;;;;;;;0.50;0.50;;;;;;;0.75;89.54;102077.41;5105965;28;20033;-81
2023/01/27 09:20:18;;;;;;;0.50;0.50;;;;;;;0.98;88.85;102070.19;5108382;28;20024;-81
2023/01/27 09:22:44;;;;;;;0.50;0.50;;;;;;;1.32;89.18;102079.81;5108995;28;20024;-81
2023/01/27 09:25:15;;;;;;;0.50;0.50;;;;;;;1.71;88.65;102084.50;5107215;28;20494;-81
2023/01/27 09:27:41;;;;;;;0.60;0.60;;;;;;;1.76;87.00;102069.38;5090737;28;20022;-81
2023/01/27 09:30:09;;;;;;;0.60;0.60;;;;;;;1.79;86.33;102084.06;5090052;28;20024;-81
2023/01/27 09:32:34;;;;;;;1.45;1.35;;;;;;;1.78;86.40;102080.59;5108237;28;20027;-81
2023/01/27 09:34:59;;;;;;;0.50;0.50;;;;;;;1.91;87.14;102082.16;5108219;28;20349;-81
2023/01/27 09:37:25;;;;;;;0.50;0.50;;;;;;;2.33;87.46;102086.06;5089497;28;20028;-81
2023/01/27 09:39:55;;;;;;;0.50;0.50;;;;;;;2.65;87.23;102094.53;5108359;28;20016;-81
2023/01/27 09:43:01;;;;;;;0.50;0.50;;;;;;;3.11;86.27;102095.13;5107719;28;20016;-79
2023/01/27 09:45:51;;;;;;;0.50;0.50;;;;;;;3.44;85.28;102084.75;5105814;28;20076;-80
2023/01/27 09:48:46;;;;;;;0.50;0.50;;;;;;;3.76;83.74;102096.47;5106597;28;20038;-80
2023/01/27 09:51:35;;;;;;;0.50;0.50;;;;;;;4.13;82.14;102103.31;5104530;28;20044;-79
2023/01/27 09:54:21;;;;;;;0.50;0.50;;;;;;;4.49;81.40;102096.31;5106746;28;20027;-80
2023/01/27 09:57:06;;;;;;;0.50;0.50;;;;;;;4.52;77.99;102089.59;5108024;28;20063;-80
2023/01/27 10:00:00;;;;;;;0.40;0.40;;;;;;;4.77;76.68;102102.66;5108232;28;20022;-80
2023/01/27 10:02:28;;;;;;;0.50;0.50;;;;;;;5.09;75.51;102095.44;5084109;28;20040;-80
2023/01/27 10:05:25;;;;;;;1.05;1.05;;;;;;;5.51;71.03;102091.09;5114194;28;20035;-82
2023/01/27 10:08:17;;;;;;;3.80;2.95;;;;;;;5.99;71.63;102084.31;5100800;28;20011;-81
2023/01/27 10:10:47;;;;;;;0.60;0.60;;;;;;;6.35;71.27;102075.31;5101086;28;20020;-80
2023/01/27 10:13:22;;;;;;;0.50;0.50;;;;;;;7.09;74.94;102065.78;5116962;28;20024;-80
2023/01/27 10:16:03;;;;;;;0.50;0.50;;;;;;;7.40;72.27;102070.25;5113900;28;20072;-80
2023/01/27 10:19:09;;;;;;;0.45;0.45;;;;;;;8.00;69.29;102067.75;5116691;28;20016;-79
2023/01/27 10:21:53;;;;;;;1.55;1.45;;;;;;;8.49;73.70;102061.28;5094141;28;20062;-77
2023/01/27 10:24:58;;;;;;;0.40;0.40;;;;;;;8.23;67.15;102067.50;5113399;28;20031;-78
2023/01/27 10:27:26;;;;;;;0.40;0.40;;;;;;;8.02;64.27;102068.63;5111022;28;20027;-77
2023/01/27 10:30:02;;;;;;;0.40;0.40;;;;;;;7.89;64.42;102063.97;5108215;28;20028;-79
2023/01/27 10:32:43;;;;;;;0.60;0.60;;;;;;;7.46;65.10;102063.53;5106929;28;20024;-78
2023/01/27 10:35:20;;;;;;;0.80;0.80;;;;;;;7.18;66.82;102076.44;5105608;28;20028;-78
2023/01/27 10:38:06;;;;;;;0.40;0.40;;;;;;;6.87;65.65;102073.69;5105152;28;20396;-78
2023/01/27 10:40:40;;;;;;;0.50;0.50;;;;;;;6.81;68.77;102079.53;5106652;28;20034;-78
2023/01/27 10:43:22;;;;;;;0.40;0.40;;;;;;;6.41;66.31;102080.72;5106616;28;20044;-78
2023/01/27 10:45:53;;;;;;;;;;;;;;;6.00;65.62;102073.19;5107005;28;20020;-78
2023/01/27 10:48:33;;;;;;;0.50;0.50;;;;;;;5.70;67.26;102069.50;5106512;28;19908;-78
2023/01/27 10:51:14;;;;;;;0.40;0.40;;;;;;;5.70;73.48;102074.66;5106629;28;20366;-78
2023/01/27 10:53:47;;;;;;;0.50;0.50;;;;;;;5.29;75.09;102061.88;5106331;28;20024;-77
2023/01/27 10:56:41;;;;;;;0.50;0.50;;;;;;;4.95;74.09;102059.69;5088245;28;20541;-77
2023/01/27 10:59:15;;;;;;;0.50;0.50;;;;;;;4.60;75.73;102064.22;5087920;28;20031;-78
2023/01/27 11:01:50;;;;;;;0.85;0.85;;;;;;;4.31;76.42;102058.69;5106166;28;20036;-77
2023/01/27 11:04:38;;;;;;;0.45;0.45;;;;;;;4.12;75.21;102052.72;5106271;28;20464;-78
2023/01/27 11:07:05;;;;;;;0.50;0.50;;;;;;;4.57;75.98;102064.06;5106011;28;20116;-78
2023/01/27 11:09:35;;;;;;;0.50;0.50;;;;;;;5.06;78.91;102057.53;5106137;28;20094;-78
2023/01/27 11:12:11;;;;;;;0.50;0.50;;;;;;;5.62;80.41;102064.06;5087817;28;20016;-78
2023/01/27 11:14:52;;;;;;;0.50;0.50;;;;;;;6.01;79.87;102064.63;5087564;28;20028;-78
2023/01/27 11:17:50;;;;;;;0.50;0.50;;;;;;;6.29;78.89;102071.69;5105989;28;20473;-78
2023/01/27 11:20:34;;;;;;;0.50;0.50;;;;;;;7.00;77.89;102068.94;5094747;28;20065;-77
2023/01/27 11:23:08;;;;;;;0.50;0.50;;;;;;;7.98;74.17;102059.06;5087518;28;20024;-80
2023/01/27 11:26:11;;;;;;;0.40;0.40;;;;;;;8.90;67.80;102056.34;5087497;28;20040;-78
2023/01/27 11:28:52;;;;;;;0.82;0.82;;;;;;;9.91;65.68;102054.31;5105800;28;20024;-79
2023/01/27 11:31:49;;;;;;;0.50;0.50;;;;;;;10.76;66.04;102055.09;5106020;28;20035;-78
2023/01/27 11:34:41;;;;;;;0.40;0.40;;;;;;;11.52;66.46;102050.19;5105771;28;20031;-78
2023/01/27 11:37:25;;;;;;;0.50;0.50;;;;;;;12.05;62.00;102051.72;5118807;28;20033;-78
2023/01/27 11:39:51;;;;;;;2.47;1.13;;;;;;;12.80;63.28;102047.28;5089403;28;20031;-77
2023/01/27 11:42:17;;;;;;;0.40;0.40;;;;;;;12.82;63.23;102036.03;5105345;28;20024;-78
2023/01/27 11:44:44;;;;;;;0.40;0.40;;;;;;;11.47;63.87;102038.84;5105480;28;20023;-77
2023/01/27 11:47:23;;;;;;;0.40;0.40;;;;;;;9.79;63.60;102036.78;5087071;28;20106;-77
2023/01/27 11:49:51;;;;;;;0.40;0.40;;;;;;;8.83;69.25;102032.84;5105374;28;20036;-78
2023/01/27 11:52:22;;;;;;;0.50;0.50;;;;;;;7.84;71.59;102037.06;5104905;28;20024;-77
2023/01/27 11:55:20;;;;;;;0.50;0.50;;;;;;;6.96;73.26;102041.28;5086850;28;20044;-77
2023/01/27 11:58:12;;;;;;;0.50;0.50;;;;;;;6.15;75.28;102037.66;5105220;28;20168;-78
2023/01/27 12:00:44;;;;;;;0.60;0.60;;;;;;;5.55;76.57;102028.53;5086838;28;20027;-79
2023/01/27 12:03:22;;;;;;;0.55;0.55;;;;;;;5.14;78.07;102031.25;5086664;28;20476;-78
2023/01/27 12:05:58;;;;;;;0.50;0.50;;;;;;;4.77;79.52;102025.47;5086615;28;20023;-78
2023/01/27 12:08:44;;;;;;;0.50;0.50;;;;;;;4.18;79.40;102027.31;5086553;28;20023;-79
2023/01/27 12:11:18;;;;;;;0.45;0.45;;;;;;;3.80;77.75;102027.31;5104703;28;20071;-78